Time;durP1;ratioP1;P1;durP2;ratioP2;P2;SDS_P1;SDS_P2;PMS_P1;PMS_P2;Temp;Humidity;BMP_temperature;BMP_pressure;BME280_temperature;BME280_humidity;BME280_pressure;Samples;Min_cycle;Max_cycle;Signal;HPM_P1;HPM_P2
2022/08/28 00:00:55;;;;;;;47.88;10.60;;;;;;;28.08;100.00;97720.56;4968833;28;20126;-53
2022/08/28 00:03:21;;;;;;;34.83;8.27;;;;;;;28.15;100.00;97718.81;4971898;28;20045;-53
2022/08/28 00:05:46;;;;;;;30.75;9.60;;;;;;;27.80;100.00;97713.03;4973052;28;20054;-54
2022/08/28 00:08:15;;;;;;;37.22;9.93;;;;;;;27.97;100.00;97707.59;4971308;28;20094;-55
2022/08/28 00:10:42;;;;;;;25.15;8.20;;;;;;;28.06;100.00;97711.88;4971107;28;20053;-54
2022/08/28 00:13:14;;;;;;;35.03;9.57;;;;;;;28.25;100.00;97714.03;4970625;28;20046;-53
2022/08/28 00:15:39;;;;;;;28.13;8.57;;;;;;;27.83;100.00;97704.66;4972142;28;20492;-53
2022/08/28 00:18:06;;;;;;;26.08;8.52;;;;;;;27.98;100.00;97706.59;4971601;28;20049;-57
2022/08/28 00:20:33;;;;;;;30.55;8.55;;;;;;;28.28;100.00;97710.16;4970970;28;20073;-55
2022/08/28 00:22:59;;;;;;;33.63;9.48;;;;;;;27.44;100.00;97710.97;4971895;28;20522;-57
2022/08/28 00:25:27;;;;;;;37.53;10.90;;;;;;;27.39;100.00;97713.34;4970299;28;20088;-54
2022/08/28 00:27:56;;;;;;;34.97;9.30;;;;;;;27.78;100.00;97709.72;4969874;28;20075;-55
2022/08/28 00:30:26;;;;;;;39.75;9.77;;;;;;;28.38;100.00;97712.56;4969122;28;20117;-57
2022/08/28 00:32:54;;;;;;;31.98;9.57;;;;;;;28.09;100.00;97708.81;4969112;28;20187;-55
2022/08/28 00:35:20;;;;;;;47.63;10.77;;;;;;;27.71;100.00;97711.44;4970881;28;20026;-55
2022/08/28 00:37:46;;;;;;;33.65;9.55;;;;;;;28.26;100.00;97710.31;4970962;28;20026;-56
2022/08/28 00:40:14;;;;;;;30.08;9.43;;;;;;;28.42;100.00;97711.19;4969895;28;20077;-55
2022/08/28 00:42:41;;;;;;;37.10;10.30;;;;;;;28.00;100.00;97712.59;4970649;28;20038;-55
2022/08/28 00:45:07;;;;;;;35.13;9.88;;;;;;;27.74;100.00;97716.44;4972290;28;20057;-54
2022/08/28 00:47:33;;;;;;;46.35;11.68;;;;;;;27.36;100.00;97708.34;4969605;28;20732;-55
2022/08/28 00:50:00;;;;;;;32.00;9.40;;;;;;;27.66;100.00;97713.81;4969931;28;20141;-55
2022/08/28 00:52:26;;;;;;;40.67;9.88;;;;;;;28.19;100.00;97714.75;4969311;28;20489;-54
2022/08/28 00:55:00;;;;;;;33.72;9.00;;;;;;;28.74;100.00;97717.25;4970475;28;20045;-53
2022/08/28 00:57:30;;;;;;;33.38;9.85;;;;;;;28.18;100.00;97718.47;4970676;28;20070;-53
2022/08/28 00:59:56;;;;;;;28.25;8.88;;;;;;;28.06;100.00;97714.53;4970555;28;20031;-53
2022/08/28 01:02:21;;;;;;;41.20;11.15;;;;;;;27.68;100.00;97717.16;4968010;28;20097;-55
2022/08/28 01:04:49;;;;;;;41.50;11.73;;;;;;;27.49;100.00;97713.94;4970588;28;20034;-55
2022/08/28 01:07:16;;;;;;;46.10;12.02;;;;;;;27.50;100.00;97717.47;4970099;28;20027;-56
2022/08/28 01:09:47;;;;;;;48.58;13.00;;;;;;;27.87;100.00;97715.84;4968928;28;20109;-55
2022/08/28 01:12:19;;;;;;;34.45;10.68;;;;;;;28.25;100.00;97719.41;4968646;28;20046;-55
2022/08/28 01:14:46;;;;;;;;;;;;;;;28.07;100.00;97721.59;4971622;28;20030;-56
2022/08/28 01:17:13;;;;;;;34.30;10.85;;;;;;;27.81;100.00;97717.41;4967939;28;19929;-54
2022/08/28 01:19:47;;;;;;;40.40;10.35;;;;;;;28.58;100.00;97724.47;4968476;28;20034;-55
2022/08/28 01:22:36;;;;;;;37.53;10.70;;;;;;;28.36;100.00;97719.94;4967258;28;20034;-54
2022/08/28 01:25:05;;;;;;;35.85;10.18;;;;;;;28.03;100.00;97725.63;4970881;28;20157;-55
2022/08/28 01:27:31;;;;;;;37.33;11.52;;;;;;;28.02;100.00;97723.97;4969924;28;20042;-55
2022/08/28 01:29:56;;;;;;;40.25;11.95;;;;;;;27.15;100.00;97716.97;4969900;28;20216;-54
2022/08/28 01:32:43;;;;;;;41.78;12.05;;;;;;;27.73;100.00;97720.13;4969418;28;20053;-55
2022/08/28 01:35:12;;;;;;;38.97;12.02;;;;;;;27.37;100.00;97715.38;4970089;28;20045;-54
2022/08/28 01:37:39;;;;;;;30.23;10.93;;;;;;;27.61;100.00;97716.22;4971397;28;20026;-54
2022/08/28 01:40:06;;;;;;;41.25;12.00;;;;;;;28.05;100.00;97720.94;4970242;28;20503;-53
2022/08/28 01:42:37;;;;;;;29.38;9.05;;;;;;;28.62;100.00;97723.06;4968779;28;20355;-54
2022/08/28 01:45:03;;;;;;;47.92;12.55;;;;;;;28.53;100.00;97729.53;4970653;28;20030;-53
2022/08/28 01:47:28;;;;;;;38.28;12.00;;;;;;;27.44;100.00;97719.00;4970323;28;20034;-55
2022/08/28 01:49:54;;;;;;;35.65;10.25;;;;;;;28.27;100.00;97714.69;4970614;28;20137;-53
2022/08/28 01:52:19;;;;;;;39.45;11.05;;;;;;;28.17;100.00;97719.47;4969172;28;20042;-54
2022/08/28 01:54:45;;;;;;;38.53;11.75;;;;;;;27.84;100.00;97721.56;4970632;28;20435;-53
2022/08/28 01:57:10;;;;;;;45.85;13.40;;;;;;;26.78;100.00;97715.78;4966277;28;20039;-54
2022/08/28 01:59:35;;;;;;;37.38;11.95;;;;;;;27.69;100.00;97718.81;4969822;28;20035;-54
2022/08/28 02:02:01;;;;;;;44.40;14.55;;;;;;;26.29;100.00;97711.34;4969665;28;20033;-53
2022/08/28 02:04:26;;;;;;;39.35;14.65;;;;;;;26.35;100.00;97708.00;4970058;28;20815;-56
2022/08/28 02:06:52;;;;;;;36.17;11.55;;;;;;;26.76;100.00;97708.91;4969188;28;20042;-54
2022/08/28 02:09:17;;;;;;;50.85;13.93;;;;;;;26.91;100.00;97715.25;4968428;28;20027;-53
2022/08/28 02:11:43;;;;;;;36.83;12.80;;;;;;;26.82;100.00;97713.59;4969076;28;20046;-54
2022/08/28 02:14:09;;;;;;;38.08;11.52;;;;;;;27.64;100.00;97714.03;4971682;28;20500;-56
2022/08/28 02:16:34;;;;;;;37.63;11.00;;;;;;;27.77;100.00;97713.41;4969267;28;20043;-56
2022/08/28 02:19:00;;;;;;;38.30;11.48;;;;;;;28.16;100.00;97715.13;4967310;28;20036;-54
2022/08/28 02:21:25;;;;;;;52.97;12.88;;;;;;;26.91;100.00;97715.25;4983058;28;20526;-53
2022/08/28 02:23:52;;;;;;;36.05;12.13;;;;;;;27.34;100.00;97712.19;4969634;28;20706;-53
2022/08/28 02:26:18;;;;;;;41.20;11.77;;;;;;;27.69;100.00;97722.34;4968318;28;20576;-54
2022/08/28 02:28:44;;;;;;;35.38;11.45;;;;;;;27.65;100.00;97717.53;4967823;28;20027;-55
2022/08/28 02:31:10;;;;;;;35.78;11.52;;;;;;;27.35;100.00;97712.03;4968833;28;20094;-53
2022/08/28 02:33:40;;;;;;;41.92;13.35;;;;;;;27.24;100.00;97720.41;4985638;28;20850;-53
2022/08/28 02:36:07;;;;;;;41.45;12.00;;;;;;;27.15;100.00;97718.78;4969289;28;20041;-53
2022/08/28 02:38:33;;;;;;;44.00;12.48;;;;;;;27.32;100.00;97732.97;4970112;28;20520;-54
2022/08/28 02:40:58;;;;;;;50.60;14.23;;;;;;;27.57;100.00;97725.59;4973586;28;20479;-54
2022/08/28 02:43:24;;;;;;;42.65;11.25;;;;;;;27.88;100.00;97726.41;4972415;28;20038;-52
2022/08/28 02:45:49;;;;;;;37.55;12.60;;;;;;;27.26;100.00;97721.13;4970959;28;20041;-54
2022/08/28 02:48:14;;;;;;;38.58;12.57;;;;;;;26.73;100.00;97716.28;4971240;28;20121;-53
2022/08/28 02:50:39;;;;;;;41.05;12.55;;;;;;;26.53;100.00;97723.00;4969653;28;20120;-53
2022/08/28 02:53:05;;;;;;;40.67;12.40;;;;;;;27.53;100.00;97711.72;4971900;28;20704;-53
2022/08/28 02:55:30;;;;;;;40.00;12.88;;;;;;;27.48;100.00;97717.63;4973200;28;20419;-54
2022/08/28 02:57:56;;;;;;;33.85;11.48;;;;;;;27.52;100.00;97714.63;4973448;28;20607;-53
2022/08/28 03:00:23;;;;;;;40.83;11.95;;;;;;;27.88;100.00;97718.34;4971355;28;20122;-55
2022/08/28 03:02:50;;;;;;;40.08;11.02;;;;;;;27.97;100.00;97716.44;4969487;28;20552;-53
2022/08/28 03:05:19;;;;;;;34.58;10.77;;;;;;;28.26;100.00;97714.88;4972689;28;20104;-53
2022/08/28 03:07:45;;;;;;;45.10;12.48;;;;;;;27.26;100.00;97710.41;4971822;28;20006;-55
2022/08/28 03:10:10;;;;;;;27.83;10.15;;;;;;;27.94;100.00;97713.28;4971757;28;20033;-54
2022/08/28 03:12:37;;;;;;;32.65;9.88;;;;;;;28.36;100.00;97728.00;4971582;28;20512;-54
2022/08/28 03:15:04;;;;;;;30.17;11.27;;;;;;;27.56;100.00;97715.91;4971817;28;20035;-53
2022/08/28 03:17:30;;;;;;;37.78;11.32;;;;;;;27.28;100.00;97722.59;4970303;28;20039;-54
2022/08/28 03:19:56;;;;;;;50.00;13.18;;;;;;;27.61;100.00;97718.91;4970461;28;20034;-53
2022/08/28 03:23:24;;;;;;;37.28;11.80;;;;;;;27.75;100.00;97711.91;4971282;28;20635;-53
2022/08/28 03:25:07;;;;;;;35.42;12.32;;;;;;;27.43;100.00;97714.66;4971985;28;20397;-54
2022/08/28 03:27:32;;;;;;;42.05;12.63;;;;;;;27.36;100.00;97718.22;4971544;28;20539;-53
2022/08/28 03:29:58;;;;;;;39.60;11.43;;;;;;;28.15;100.00;97724.19;4971389;28;20014;-52
2022/08/28 03:32:24;;;;;;;34.45;10.23;;;;;;;28.06;100.00;97718.03;4971755;28;20141;-53
2022/08/28 03:34:49;;;;;;;56.95;13.75;;;;;;;27.68;100.00;97722.50;4972375;28;20599;-53
2022/08/28 03:37:15;;;;;;;39.28;12.68;;;;;;;27.88;100.00;97728.22;4970056;28;20508;-53
2022/08/28 03:39:40;;;;;;;32.17;11.10;;;;;;;27.90;100.00;97730.75;4971997;28;20038;-53
2022/08/28 03:42:06;;;;;;;43.70;11.80;;;;;;;27.64;100.00;97721.19;4967211;28;20039;-53
2022/08/28 03:44:31;;;;;;;30.35;9.80;;;;;;;28.02;100.00;97729.31;4971516;28;20133;-55
2022/08/28 03:46:56;;;;;;;34.95;11.73;;;;;;;27.86;100.00;97731.09;4970408;28;20039;-54
2022/08/28 03:49:22;;;;;;;36.58;12.02;;;;;;;27.39;100.00;97721.38;4970976;28;20022;-53
2022/08/28 03:51:47;;;;;;;35.67;10.98;;;;;;;28.24;100.00;97728.44;4970885;28;20531;-53
2022/08/28 03:54:13;;;;;;;45.67;12.25;;;;;;;28.23;100.00;97731.31;4970697;28;20034;-52
2022/08/28 03:56:41;;;;;;;29.52;10.55;;;;;;;28.35;100.00;97729.84;4970294;28;20786;-54
2022/08/28 03:59:07;;;;;;;32.75;11.10;;;;;;;27.56;100.00;97740.03;4971448;28;20023;-53
2022/08/28 04:01:33;;;;;;;34.97;12.88;;;;;;;27.25;100.00;97732.78;4969989;28;20046;-55
2022/08/28 04:03:58;;;;;;;32.63;9.93;;;;;;;28.08;100.00;97739.31;4969243;28;20022;-53
2022/08/28 04:06:24;;;;;;;44.42;12.85;;;;;;;27.46;100.00;97735.72;4970367;28;20042;-54
2022/08/28 04:08:49;;;;;;;37.80;12.60;;;;;;;27.36;100.00;97734.28;4970707;28;20554;-54
2022/08/28 04:11:16;;;;;;;33.97;11.43;;;;;;;27.56;100.00;97740.84;4985817;28;20436;-54
2022/08/28 04:13:41;;;;;;;38.13;12.27;;;;;;;27.41;100.00;97746.13;4969611;28;20022;-54
2022/08/28 04:16:10;;;;;;;31.83;10.32;;;;;;;28.30;100.00;97742.16;4970998;28;20179;-54
2022/08/28 04:18:38;;;;;;;42.67;12.20;;;;;;;27.92;100.00;97750.16;4969354;28;20034;-54
2022/08/28 04:21:07;;;;;;;45.30;13.52;;;;;;;27.46;100.00;97746.44;4973926;28;20042;-54
2022/08/28 04:23:33;;;;;;;37.45;10.48;;;;;;;28.42;100.00;97751.44;4968520;28;20034;-54
2022/08/28 04:25:59;;;;;;;34.20;12.30;;;;;;;27.34;100.00;97755.88;4968722;28;20038;-53
2022/08/28 04:28:25;;;;;;;34.83;11.02;;;;;;;27.83;100.00;97758.25;4968195;28;20139;-53
2022/08/28 04:30:55;;;;;;;38.63;12.25;;;;;;;27.23;100.00;97756.25;4969766;28;20048;-54
2022/08/28 04:33:22;;;;;;;31.58;11.10;;;;;;;28.25;100.00;97756.94;4970341;28;20034;-53
2022/08/28 04:35:48;;;;;;;35.72;11.20;;;;;;;27.47;100.00;97757.97;4970184;28;20060;-53
2022/08/28 04:38:13;;;;;;;30.20;9.82;;;;;;;27.36;100.00;97756.53;4971131;28;20405;-53
2022/08/28 04:40:40;;;;;;;41.88;11.82;;;;;;;27.84;100.00;97759.06;4971341;28;20142;-54
2022/08/28 04:43:06;;;;;;;31.83;11.10;;;;;;;27.86;100.00;97757.06;4970142;28;20121;-53
2022/08/28 04:45:31;;;;;;;35.60;10.25;;;;;;;28.34;100.00;97764.91;4970968;28;20027;-53
2022/08/28 04:47:57;;;;;;;31.92;11.35;;;;;;;27.98;100.00;97762.88;4971207;28;20030;-54
2022/08/28 04:50:22;;;;;;;40.70;12.27;;;;;;;27.30;100.00;97762.59;4970631;28;20048;-53
2022/08/28 04:52:49;;;;;;;43.95;12.50;;;;;;;28.00;100.00;97763.53;4971129;28;20057;-53
2022/08/28 04:55:15;;;;;;;35.47;11.80;;;;;;;27.21;100.00;97763.63;4968669;28;20050;-53
2022/08/28 04:57:40;;;;;;;42.83;13.02;;;;;;;27.52;100.00;97760.16;4975601;28;20166;-53
2022/08/28 05:00:08;;;;;;;33.60;11.32;;;;;;;27.77;100.00;97758.94;4971301;28;20104;-54
2022/08/28 05:02:34;;;;;;;32.25;11.02;;;;;;;27.51;100.00;97770.00;4988164;28;20174;-53
2022/08/28 05:04:59;;;;;;;40.67;13.00;;;;;;;27.46;100.00;97767.88;4967210;28;20033;-60
2022/08/28 05:07:25;;;;;;;36.67;10.82;;;;;;;27.97;100.00;97779.97;4969207;28;20034;-60
2022/08/28 05:09:53;;;;;;;41.40;12.50;;;;;;;27.94;100.00;97785.66;4969990;28;20129;-60
2022/08/28 05:12:19;;;;;;;40.60;12.85;;;;;;;27.71;100.00;97780.28;4968239;28;20061;-60
2022/08/28 05:14:44;;;;;;;41.38;13.02;;;;;;;27.04;100.00;97785.09;4969957;28;20435;-60
2022/08/28 05:17:12;;;;;;;26.70;9.38;;;;;;;28.10;100.00;97779.34;4968372;28;20066;-61
2022/08/28 05:19:38;;;;;;;33.95;9.98;;;;;;;28.00;100.00;97776.94;4969503;28;20033;-59
2022/08/28 05:22:03;;;;;;;47.25;13.02;;;;;;;27.77;100.00;97775.03;4967516;28;20038;-59
2022/08/28 05:24:29;;;;;;;35.88;11.68;;;;;;;27.80;100.00;97773.84;4970140;28;20109;-60
2022/08/28 05:26:55;;;;;;;39.28;12.25;;;;;;;28.10;100.00;97785.53;4969073;28;20143;-59
2022/08/28 05:29:20;;;;;;;35.50;11.20;;;;;;;28.03;100.00;97784.59;4969321;28;20022;-60
2022/08/28 05:31:46;;;;;;;28.88;9.00;;;;;;;28.74;100.00;97787.03;4969561;28;20045;-59
2022/08/28 05:34:12;;;;;;;42.83;12.23;;;;;;;28.20;100.00;97786.16;4968367;28;20031;-59
2022/08/28 05:36:38;;;;;;;30.73;10.35;;;;;;;28.80;100.00;97786.28;4969323;28;20042;-59
2022/08/28 05:39:07;;;;;;;40.20;12.07;;;;;;;28.29;100.00;97794.09;4969026;28;20396;-58
2022/08/28 05:41:33;;;;;;;38.95;10.98;;;;;;;29.08;100.00;97793.69;4969897;28;20065;-58
2022/08/28 05:44:02;;;;;;;35.20;11.82;;;;;;;28.11;100.00;97794.44;4969509;28;20035;-59
2022/08/28 05:46:28;;;;;;;37.70;11.70;;;;;;;28.13;100.00;97795.91;4970506;28;20166;-58
2022/08/28 05:48:54;;;;;;;37.10;12.02;;;;;;;27.92;100.00;97803.78;4968335;28;20109;-59
2022/08/28 05:51:22;;;;;;;46.67;12.93;;;;;;;28.76;100.00;97806.44;4968402;28;20062;-58
2022/08/28 05:53:48;;;;;;;38.67;11.65;;;;;;;28.53;100.00;97801.16;4968378;28;20076;-58
2022/08/28 05:56:17;;;;;;;38.58;11.10;;;;;;;28.92;100.00;97808.97;4967733;28;20114;-58
2022/08/28 05:58:43;;;;;;;26.65;9.05;;;;;;;28.51;100.00;97804.00;4969446;28;20105;-58
2022/08/28 06:01:10;;;;;;;27.20;8.63;;;;;;;29.13;100.00;97812.75;4970287;28;20046;-58
2022/08/28 06:03:36;;;;;;;37.03;10.60;;;;;;;28.65;100.00;97810.41;4968707;28;20023;-60
2022/08/28 06:06:02;;;;;;;25.83;8.95;;;;;;;29.68;100.00;97811.41;4970871;28;20053;-60
2022/08/28 06:08:28;;;;;;;41.63;12.23;;;;;;;29.25;100.00;97805.09;4973184;28;20018;-59
2022/08/28 06:10:55;;;;;;;44.28;11.55;;;;;;;28.54;100.00;97808.16;4973160;28;20031;-59
2022/08/28 06:13:20;;;;;;;35.45;11.32;;;;;;;28.17;100.00;97810.63;4974252;28;20239;-58
2022/08/28 06:15:46;;;;;;;32.75;10.35;;;;;;;29.12;100.00;97811.94;4973991;28;20360;-59
2022/08/28 06:18:12;;;;;;;34.05;9.88;;;;;;;29.03;100.00;97810.34;4972982;28;20041;-60
2022/08/28 06:20:42;;;;;;;37.25;10.38;;;;;;;28.68;100.00;97811.91;4972085;28;20119;-59
2022/08/28 06:23:09;;;;;;;34.45;9.93;;;;;;;29.00;100.00;97825.00;4971383;28;20038;-60
2022/08/28 06:25:45;;;;;;;31.27;10.82;;;;;;;28.24;100.00;97818.78;4970409;28;20077;-58
2022/08/28 06:28:15;;;;;;;34.33;10.52;;;;;;;28.74;100.00;97819.22;4972781;28;20058;-59
2022/08/28 06:30:42;;;;;;;36.40;10.32;;;;;;;28.88;100.00;97825.63;4974188;28;20129;-60
2022/08/28 06:33:08;;;;;;;34.05;10.05;;;;;;;28.62;100.00;97827.72;4973523;28;20030;-58
2022/08/28 06:35:39;;;;;;;37.33;10.90;;;;;;;29.27;100.00;97819.19;4971422;28;20787;-59
2022/08/28 06:38:04;;;;;;;32.08;10.23;;;;;;;28.93;100.00;97828.56;4973530;28;20033;-58
2022/08/28 06:40:30;;;;;;;35.20;9.98;;;;;;;28.87;100.00;97823.97;4972206;28;20050;-59
2022/08/28 06:42:55;;;;;;;35.40;10.25;;;;;;;27.91;100.00;97823.56;4970668;28;20018;-58
2022/08/28 06:45:21;;;;;;;37.97;10.98;;;;;;;28.97;100.00;97825.34;4972588;28;20082;-59
2022/08/28 06:47:46;;;;;;;46.95;11.02;;;;;;;29.42;100.00;97831.56;4971977;28;20025;-59
2022/08/28 06:50:11;;;;;;;41.63;10.70;;;;;;;27.96;100.00;97832.75;4969379;28;20738;-58
2022/08/28 06:52:37;;;;;;;35.63;9.75;;;;;;;29.40;100.00;97830.91;4972110;28;20395;-58
2022/08/28 06:55:02;;;;;;;42.00;10.55;;;;;;;29.63;100.00;97835.34;4971453;28;20030;-58
2022/08/28 06:57:28;;;;;;;33.40;9.23;;;;;;;28.26;100.00;97832.84;4971038;28;20709;-57
2022/08/28 06:59:57;;;;;;;40.35;10.63;;;;;;;28.15;100.00;97836.78;4971422;28;20035;-62
2022/08/28 07:02:23;;;;;;;38.95;9.15;;;;;;;29.84;100.00;97844.50;4972087;28;20180;-59
2022/08/28 07:04:50;;;;;;;41.92;9.07;;;;;;;29.04;100.00;97846.91;4972528;28;20624;-58
2022/08/28 07:07:15;;;;;;;34.05;8.68;;;;;;;30.09;100.00;97845.81;4971476;28;20137;-58
2022/08/28 07:09:41;;;;;;;38.90;8.48;;;;;;;29.58;100.00;97848.50;4968716;28;20038;-60
2022/08/28 07:12:07;;;;;;;37.70;8.73;;;;;;;28.49;100.00;97848.94;4968189;28;20765;-58
2022/08/28 07:14:33;;;;;;;28.17;7.35;;;;;;;29.53;100.00;97845.53;4971023;28;20060;-58
2022/08/28 07:16:58;;;;;;;39.08;8.18;;;;;;;29.98;100.00;97843.63;4971380;28;20065;-58
2022/08/28 07:19:24;;;;;;;38.03;7.75;;;;;;;30.28;96.79;97843.50;4970538;28;20106;-58
2022/08/28 07:21:49;;;;;;;32.95;7.60;;;;;;;30.22;96.28;97849.63;4970555;28;20057;-58
2022/08/28 07:24:16;;;;;;;37.80;7.82;;;;;;;30.12;92.78;97855.34;4972626;28;20049;-60
2022/08/28 07:26:43;;;;;;;33.08;7.25;;;;;;;30.09;92.67;97851.19;4971349;28;20039;-58
2022/08/28 07:29:08;;;;;;;35.85;8.10;;;;;;;29.76;94.70;97862.41;4971678;28;20046;-58
2022/08/28 07:31:34;;;;;;;34.50;7.45;;;;;;;30.27;92.05;97852.59;4968090;28;20046;-58
2022/08/28 07:33:59;;;;;;;32.00;8.07;;;;;;;31.07;91.23;97855.97;4969549;28;20506;-57
2022/08/28 07:36:26;;;;;;;33.33;7.63;;;;;;;30.75;89.39;97855.50;4966843;28;20404;-60
2022/08/28 07:38:54;;;;;;;29.92;7.20;;;;;;;30.26;92.22;97861.69;4969312;28;20491;-59
2022/08/28 07:41:23;;;;;;;37.03;7.70;;;;;;;29.79;92.13;97867.41;4967553;28;20419;-58
2022/08/28 07:46:36;;;;;;;26.17;6.55;;;;;;;30.46;89.21;97862.75;4969601;28;20087;-58
2022/08/28 07:49:03;;;;;;;28.52;6.50;;;;;;;31.30;84.19;97861.94;4971262;28;20534;-58
2022/08/28 07:51:29;;;;;;;27.70;6.43;;;;;;;31.13;82.11;97863.25;4970141;28;20035;-58
2022/08/28 07:53:58;;;;;;;32.50;7.07;;;;;;;31.15;80.55;97866.59;4971279;28;20078;-58
2022/08/28 07:56:26;;;;;;;32.05;6.65;;;;;;;31.95;81.00;97867.00;4969063;28;20062;-58
2022/08/28 07:58:52;;;;;;;25.48;6.05;;;;;;;31.85;79.80;97861.13;4969931;28;20093;-58
2022/08/28 08:01:18;;;;;;;30.33;6.10;;;;;;;30.61;83.60;97865.34;4971642;28;20153;-59
2022/08/28 08:03:43;;;;;;;25.10;6.07;;;;;;;29.90;85.17;97867.94;4970268;28;20428;-59
2022/08/28 08:06:11;;;;;;;26.98;5.85;;;;;;;30.97;83.58;97874.34;4983165;28;20611;-58
2022/08/28 08:08:38;;;;;;;30.67;6.78;;;;;;;30.37;83.47;97877.34;4968554;28;20050;-58
2022/08/28 08:11:08;;;;;;;36.75;7.43;;;;;;;30.65;85.19;97880.06;4970187;28;20429;-59
2022/08/28 08:13:36;;;;;;;33.13;6.90;;;;;;;31.40;81.65;97879.59;4970348;28;20095;-59
2022/08/28 08:16:05;;;;;;;28.05;6.05;;;;;;;30.75;82.85;97882.44;4969101;28;20138;-58
2022/08/28 08:18:32;;;;;;;23.67;5.70;;;;;;;31.53;79.69;97884.25;4969303;28;20155;-58
2022/08/28 08:20:57;;;;;;;39.85;7.82;;;;;;;30.49;79.53;97889.28;4969719;28;20093;-60
2022/08/28 08:23:23;;;;;;;34.95;7.18;;;;;;;31.08;81.21;97892.66;4969731;28;20027;-60
2022/08/28 08:25:56;;;;;;;39.78;7.22;;;;;;;30.43;84.64;97887.34;4968647;28;20062;-60
2022/08/28 08:28:21;;;;;;;34.63;7.10;;;;;;;31.03;83.63;97885.19;4970021;28;20552;-59
2022/08/28 08:30:47;;;;;;;37.38;7.55;;;;;;;32.10;77.16;97885.75;4970027;28;20043;-59
2022/08/28 08:33:12;;;;;;;29.27;6.15;;;;;;;31.89;75.74;97889.38;4969416;28;20552;-60
2022/08/28 08:35:38;;;;;;;29.95;6.32;;;;;;;32.03;74.78;97885.72;4970373;28;20046;-60
2022/08/28 08:38:05;;;;;;;28.65;6.32;;;;;;;32.28;74.39;97887.84;4971157;28;20034;-60
2022/08/28 08:40:30;;;;;;;23.02;5.82;;;;;;;32.79;72.20;97892.72;4969622;28;20038;-58
2022/08/28 08:42:56;;;;;;;35.83;7.32;;;;;;;31.56;71.29;97905.41;4967227;28;20037;-58
2022/08/28 08:45:25;;;;;;;31.85;6.47;;;;;;;33.46;69.64;97900.75;4968119;28;20072;-58
2022/08/28 08:47:52;;;;;;;30.20;6.53;;;;;;;33.44;67.79;97905.53;4969143;28;20484;-59
2022/08/28 08:50:30;;;;;;;25.85;5.93;;;;;;;32.40;67.56;97912.38;4970723;28;20487;-58
2022/08/28 08:53:17;;;;;;;33.88;7.47;;;;;;;33.44;67.19;97908.25;4966960;28;20026;-58
2022/08/28 08:55:51;;;;;;;28.35;6.20;;;;;;;34.01;62.81;97913.06;4970006;28;20050;-59
2022/08/28 08:58:27;;;;;;;30.20;6.43;;;;;;;32.34;65.60;97908.63;4967394;28;20034;-58
2022/08/28 09:00:59;;;;;;;30.40;6.45;;;;;;;33.22;65.83;97916.59;4968857;28;20078;-60
2022/08/28 09:03:51;;;;;;;28.08;5.95;;;;;;;35.81;59.00;97912.47;4969591;28;20026;-59
2022/08/28 09:06:25;;;;;;;25.98;5.85;;;;;;;34.50;59.83;97919.66;4978480;28;20073;-60
2022/08/28 09:09:05;;;;;;;27.48;6.05;;;;;;;35.30;57.25;97922.59;4967696;28;20023;-55
2022/08/28 09:11:47;;;;;;;25.05;5.82;;;;;;;33.36;63.42;97913.84;4968643;28;20038;-54
2022/08/28 09:14:22;;;;;;;28.80;6.25;;;;;;;34.17;60.35;97918.00;4969914;28;20031;-53
2022/08/28 09:16:48;;;;;;;26.50;5.97;;;;;;;33.60;62.31;97924.00;4968615;28;20045;-56
2022/08/28 09:19:18;;;;;;;30.95;6.53;;;;;;;34.16;60.32;97927.13;4970940;28;20026;-55
2022/08/28 09:21:45;;;;;;;26.88;6.38;;;;;;;32.02;66.04;97921.78;4967455;28;20034;-58
2022/08/28 09:24:20;;;;;;;24.05;5.57;;;;;;;32.66;65.10;97917.00;4969115;28;20649;-54
2022/08/28 09:27:00;;;;;;;26.73;6.03;;;;;;;33.52;62.45;97916.09;4970681;28;20035;-55
2022/08/28 09:29:38;;;;;;;33.50;6.85;;;;;;;33.12;61.15;97910.81;4968222;28;20042;-53
2022/08/28 09:32:24;;;;;;;24.42;5.97;;;;;;;34.48;56.27;97916.34;4981715;28;20034;-53
2022/08/28 09:35:10;;;;;;;24.50;5.63;;;;;;;35.39;53.26;97915.00;4984537;28;20046;-53
2022/08/28 09:37:36;;;;;;;26.50;6.00;;;;;;;37.89;47.27;97915.44;4968500;28;20062;-53
2022/08/28 09:43:25;;;;;;;20.77;4.93;;;;;;;36.23;50.60;97909.84;4967773;28;20030;-55
2022/08/28 09:43:27;;;;;;;25.55;5.47;;;;;;;36.54;47.50;97913.38;4968661;28;20058;-54
2022/08/28 09:46:06;;;;;;;25.80;5.35;;;;;;;40.39;40.90;97914.94;4969746;28;20034;-53
2022/08/28 09:48:35;;;;;;;22.35;5.43;;;;;;;41.61;37.99;97908.72;4968432;28;20034;-53
2022/08/28 09:51:11;;;;;;;36.03;7.22;;;;;;;35.89;46.77;97914.84;4961151;28;20038;-53
2022/08/28 09:53:55;;;;;;;28.15;6.40;;;;;;;38.40;41.97;97913.69;4964610;28;20674;-55
2022/08/28 09:56:32;;;;;;;28.35;5.75;;;;;;;38.65;41.32;97917.97;4966259;28;20598;-54
2022/08/28 09:59:29;;;;;;;22.42;5.43;;;;;;;36.29;47.01;97908.09;4964414;28;20035;-56
2022/08/28 10:02:01;;;;;;;21.35;5.32;;;;;;;34.97;48.85;97911.22;4958805;28;20411;-53
2022/08/28 10:04:35;;;;;;;19.05;4.90;;;;;;;35.14;51.82;97907.72;4964112;28;20034;-54
2022/08/28 10:07:14;;;;;;;31.33;6.70;;;;;;;36.13;48.84;97912.25;4962152;28;20046;-53
2022/08/28 10:10:12;;;;;;;26.15;5.60;;;;;;;36.49;50.19;97913.25;4966144;28;20029;-55
2022/08/28 10:12:58;;;;;;;21.95;4.68;;;;;;;34.81;52.05;97912.59;4964421;28;20523;-55
2022/08/28 10:15:27;;;;;;;28.75;6.28;;;;;;;36.25;50.32;97906.91;4966992;28;20027;-54
2022/08/28 10:18:00;;;;;;;30.35;6.18;;;;;;;33.99;51.30;97911.38;4963426;28;20027;-54
2022/08/28 10:20:46;;;;;;;26.40;5.90;;;;;;;35.07;50.96;97912.38;4964081;28;20043;-55
2022/08/28 10:23:35;;;;;;;25.10;5.93;;;;;;;35.64;53.15;97916.78;4963093;28;20019;-55
2022/08/28 10:26:23;;;;;;;33.08;6.78;;;;;;;34.48;54.97;97908.22;4947789;28;20308;-55
2022/08/28 10:28:49;;;;;;;33.15;6.93;;;;;;;35.11;50.83;97905.44;4961128;28;20046;-54
2022/08/28 10:31:26;;;;;;;37.85;7.47;;;;;;;35.01;50.47;97907.81;4963914;28;20415;-53
2022/08/28 10:34:04;;;;;;;31.73;6.57;;;;;;;33.30;54.60;97903.91;4966020;28;20695;-53
2022/08/28 10:36:32;;;;;;;26.65;5.85;;;;;;;35.37;48.95;97906.25;4965337;28;20190;-54
2022/08/28 10:39:22;;;;;;;26.83;6.40;;;;;;;37.61;45.16;97909.66;4964143;28;20026;-54
2022/08/28 10:41:56;;;;;;;30.70;6.40;;;;;;;35.75;47.88;97902.53;4964273;28;20035;-52
2022/08/28 10:44:31;;;;;;;32.25;7.03;;;;;;;36.99;45.16;97906.59;4967872;28;20026;-52
2022/08/28 10:46:57;;;;;;;25.17;5.63;;;;;;;38.37;42.01;97906.00;4965851;28;20034;-54
2022/08/28 10:49:40;;;;;;;29.23;6.00;;;;;;;36.85;46.14;97897.84;4965041;28;20027;-55
2022/08/28 10:52:19;;;;;;;37.55;7.68;;;;;;;36.36;46.40;97902.56;4964617;28;20038;-55
2022/08/28 10:55:05;;;;;;;20.17;5.30;;;;;;;37.91;42.79;97907.84;4968545;28;20054;-57
2022/08/28 10:57:35;;;;;;;30.40;6.53;;;;;;;35.85;47.51;97902.81;4967640;28;20031;-56
2022/08/28 11:00:11;;;;;;;21.73;4.97;;;;;;;37.42;47.21;97906.28;4966901;28;20153;-57
2022/08/28 11:02:39;;;;;;;24.63;5.43;;;;;;;35.50;48.21;97905.28;4983089;28;20042;-54
2022/08/28 11:05:06;;;;;;;22.45;5.18;;;;;;;36.27;45.32;97905.59;4968216;28;20037;-54
2022/08/28 11:07:37;;;;;;;28.98;6.38;;;;;;;36.34;44.48;97899.25;4967121;28;20043;-55
2022/08/28 11:10:20;;;;;;;;;;;;;;;35.28;47.56;97907.59;4969614;28;20026;-54
2022/08/28 11:12:48;;;;;;;16.55;4.88;;;;;;;34.89;49.04;97920.44;4970096;28;19918;-55
2022/08/28 11:15:30;;;;;;;27.60;5.95;;;;;;;33.88;50.62;97911.25;4967625;28;20019;-54
2022/08/28 11:18:16;;;;;;;26.52;6.25;;;;;;;32.90;53.40;97909.31;4968995;28;20532;-54
2022/08/28 11:20:54;;;;;;;32.03;6.88;;;;;;;35.43;50.31;97921.63;4959703;28;20070;-55
2022/08/28 11:23:23;;;;;;;28.58;6.32;;;;;;;34.63;49.95;97916.88;4967453;28;20015;-54
2022/08/28 11:25:53;;;;;;;23.35;5.57;;;;;;;36.46;46.71;97908.25;4967531;28;20616;-55
2022/08/28 11:28:21;;;;;;;22.83;5.47;;;;;;;35.95;47.96;97912.28;4968199;28;20031;-54